Latest Coastal Weather Observations for Montague Island

IDN60701

Issued at 1:11 pm EDT Thursday 23 March 2017 (issued every 10 minutes, with the page automatically refreshed every 10 minutes)

About coastal observations | Map of coastal stations | Coastal observations for NSW | Marine services | Other Formats
Station Details ID: 069017 Name: MONTAGUE ISLAND LIGHTHOUSE Lat: -36.25 Lon: 150.23 Height: 52.0 m
Data from the previous 72 hours. | See also: Recent months at Montague Island
Date/Time
EDT
Temp
°C
Wind Pressure Rain since
9am
mm
Weather Cloud Vis
km
Sea
Height
m
Swell
Dir  Spd
kts
Gust
kts
hPa Trend Height
m
Period
s
Dir
23/01:00pm 19.9 SW 12 14 1019.2 - 0.0 - - - - - - -
23/12:30pm 19.7 SSW 12 16 1019.5 - 0.0 - - - - - - -
23/12:00pm 19.7 SW 12 15 1019.5 - 0.0 - - - - - - -
23/11:30am 19.2 SSW 13 16 1019.6 - 0.0 - - - - - - -
23/11:00am 18.9 SW 12 16 1020.0 - 0.0 - - - - - - -
23/10:30am 18.4 SW 13 15 1020.0 - 0.0 - - - - - - -
23/10:00am 17.9 SW 15 17 1019.7 - 0.0 - - - - - - -
23/09:30am 18.1 SW 14 17 1019.6 - 0.0 - - - - - - -
23/09:00am 17.8 SW 13 16 1019.4 - 5.0 - - - - - - -
23/08:30am 17.8 SW 14 18 1018.9 - 5.0 - - - - - - -
23/08:00am 17.7 SW 13 16 1019.0 - 5.0 - - - - - - -
23/07:30am 18.3 SW 14 17 1018.6 - 5.0 - - - - - - -
23/07:00am 18.4 SSW 13 17 1018.4 - 5.0 - - - - - - -
23/06:30am 18.3 SW 14 17 1018.1 - 4.8 - - - - - - -
23/06:00am 18.2 SSW 13 17 1017.9 - 4.8 - - - - - - -
23/05:30am 18.4 SW 14 18 1017.8 - 4.8 - - - - - - -
23/05:00am 18.1 SW 13 17 1017.6 - 4.8 - - - - - - -
23/04:30am 17.8 SW 15 19 1017.6 - 4.8 - - - - - - -
23/04:00am 17.9 SW 15 18 1017.6 - 4.8 - - - - - - -
23/03:30am 17.8 SW 15 18 1017.4 - 4.2 - - - - - - -
23/03:00am 18.0 SW 15 18 1017.4 - 3.8 Recent precip. - - - - - -
23/02:30am 17.8 SW 14 17 1017.5 - 3.6 - - - - - - -
23/02:00am 18.1 SW 15 18 1017.7 - 3.4 - - - - - - -
23/01:30am 18.0 SW 15 19 1017.6 - 3.4 - - - - - - -
23/01:00am 18.3 SW 12 16 1017.6 - 3.2 - - - - - - -
23/12:30am 18.5 SSW 14 18 1018.0 - 3.2 - - - - - - -
23/12:00am 19.0 SW 14 21 1018.1 - 3.2 - - - - - - -
 
Date/Time
EDT
Temp
°C
Wind Pressure Rain since
9am
mm
Weather Cloud Vis
km
Sea
Height
m
Swell
Dir  Spd
kts
Gust
kts
hPa Trend Height
m
Period
s
Dir
22/11:30pm 18.4 SSW 17 21 1017.5 - 3.2 - - - - - - -
22/11:00pm 18.9 SSW 16 20 1017.3 - 3.2 - - - - - - -
22/10:30pm 19.2 SSW 17 22 1017.1 - 3.2 - - - - - - -
22/10:00pm 19.4 SSW 17 21 1017.0 - 3.2 - - - - - - -
22/09:30pm 19.2 SSW 17 21 1016.5 - 3.2 - - - - - - -
22/09:00pm 19.3 SSW 18 22 1016.1 - 3.2 - - - - - - -
22/08:30pm 19.3 SSW 17 22 1015.7 - 3.2 - - - - - - -
22/08:00pm 19.6 SSW 18 24 1015.2 - 3.2 - - - - - - -
22/07:30pm 19.7 SSW 18 22 1014.7 - 3.2 - - - - - - -
22/07:00pm 19.6 SSW 20 24 1014.3 - 3.0 - - - - - - -
22/06:30pm 19.4 SSW 21 27 1013.4 - 2.8 - - - - - - -
22/06:00pm 20.0 S 21 25 1012.9 - 2.0 Rain - - - - - -
22/05:30pm 20.3 S 21 27 1012.4 - 1.6 - - - - - - -
22/05:00pm 20.4 S 22 26 1012.1 - 1.6 - - - - - - -
22/04:30pm 20.8 S 16 22 1011.8 - 1.4 - - - - - - -
22/04:00pm 21.4 S 12 16 1012.4 - 0.6 - - - - - - -
22/03:30pm 21.8 SSE 13 16 1011.9 - 0.4 - - - - - - -
22/03:00pm 23.0 ESE 9 11 1011.8 - 0.0 - - - - - - -
22/02:30pm 23.5 E 9 11 1011.5 - 0.0 - - - - - - -
22/02:00pm 23.1 ESE 9 10 1011.5 - 0.0 - - - - - - -
22/01:30pm 24.2 E 7 8 1011.4 - 0.0 - - - - - - -
22/01:00pm 23.5 NE 6 8 1011.4 - 0.0 - - - - - - -
22/12:30pm 23.8 NNE 6 8 1011.6 - 0.0 - - - - - - -
22/12:00pm 24.1 N 5 7 1011.5 - 0.0 - - - - - - -
22/11:30am 23.8 WNW 3 5 1011.8 - 0.0 - - - - - - -
22/11:00am 23.6 SSW 2 5 1011.9 - 0.0 - - - - - - -
22/10:30am 23.6 SW 5 7 1012.0 - 0.0 - - - - - - -
22/10:00am 22.6 SSW 6 8 1012.0 - 0.0 - - - - - - -
22/09:30am 23.1 S 6 8 1011.6 - 0.0 - - - - - - -
22/09:00am 22.4 S 6 8 1011.4 - 2.8 - - - - - - -
22/08:30am 21.6 SSW 8 10 1011.2 - 2.8 - - - - - - -
22/08:00am 21.4 S 8 9 1010.6 - 2.8 - - - - - - -
22/07:30am 21.3 S 8 10 1010.2 - 2.8 - - - - - - -
22/07:00am 21.3 S 6 8 1009.6 - 2.6 - - - - - - -
22/06:30am 21.2 WSW 2 4 1009.1 - 2.6 - - - - - - -
22/06:00am 21.2 WNW 1 2 1009.0 - 2.6 - - - - - - -
22/05:30am 21.1 WNW 5 7 1008.9 - 2.6 - - - - - - -
22/05:00am 21.3 NW 5 7 1008.7 - 2.6 - - - - - - -
22/04:30am 21.4 NNW 5 7 1008.7 - 2.6 - - - - - - -
22/04:00am 21.5 NNW 6 7 1008.7 - 2.6 - - - - - - -
22/03:30am 21.5 NW 6 7 1008.7 - 2.6 - - - - - - -
22/03:00am 21.5 NNW 6 8 1008.9 - 2.6 - - - - - - -
22/02:30am 21.6 NNW 5 7 1009.1 - 2.6 - - - - - - -
22/02:00am 21.6 NW 5 7 1009.2 - 2.6 - - - - - - -
22/01:30am 21.8 NNW 6 8 1009.6 - 2.6 - - - - - - -
22/01:00am 21.9 NNW 7 10 1009.9 - 2.6 - - - - - - -
22/12:30am 22.0 N 7 8 1010.0 - 2.6 - - - - - - -
22/12:00am 22.2 N 9 12 1010.3 - 2.6 - - - - - - -
 
Date/Time
EDT
Temp
°C
Wind Pressure Rain since
9am
mm
Weather Cloud Vis
km
Sea
Height
m
Swell
Dir  Spd
kts
Gust
kts
hPa Trend Height
m
Period
s
Dir
21/11:30pm 22.2 N 9 12 1010.5 - 2.6 - - - - - - -
21/11:00pm 22.2 N 9 11 1010.7 - 2.6 - - - - - - -
21/10:30pm 22.1 N 8 10 1011.0 - 2.6 - - - - - - -
21/10:00pm 22.1 N 7 9 1011.3 - 2.6 - - - - - - -
21/09:30pm 22.1 N 8 9 1011.2 - 2.6 - - - - - - -
21/09:00pm 22.1 N 7 9 1011.0 - 2.6 - - - - - - -
21/08:30pm 22.1 N 7 9 1010.8 - 2.6 - - - - - - -
21/08:00pm 22.1 N 9 12 1010.6 - 2.6 - - - - - - -
21/07:30pm 22.1 N 7 9 1010.6 - 2.6 - - - - - - -
21/07:00pm 22.3 N 7 9 1010.6 - 2.6 - - - - - - -
21/06:30pm 22.5 N 7 9 1010.7 - 2.4 - - - - - - -
21/06:00pm 22.5 NNE 8 9 1010.6 - 2.4 - - - - - - -
21/05:30pm 22.3 NNE 7 9 1010.6 - 2.4 - - - - - - -
21/05:00pm 22.2 NE 9 11 1010.7 - 2.4 - - - - - - -
21/04:30pm 22.1 NNE 7 9 1011.5 - 2.2 - - - - - - -
21/04:00pm 21.9 NNE 6 7 1012.1 - 1.6 - - - - - - -
21/03:30pm 21.9 NE 5 7 1012.5 - 1.0 - - - - - - -
21/03:00pm 22.1 NE 4 6 1012.5 - 0.8 - - - - - - -
21/02:30pm 21.9 ENE 5 7 1012.8 - 0.8 - - - - - - -
21/02:00pm 22.1 ENE 5 7 1012.9 - 0.8 - - - - - - -
21/01:30pm 22.1 NE 5 7 1013.2 - 0.8 - - - - - - -
21/01:00pm 22.5 NE 5 7 1013.7 - 0.8 - - - - - - -
21/12:30pm 22.6 NE 4 6 1013.8 - 0.8 - - - - - - -
21/12:00pm 22.2 NNW 1 2 1014.4 - 0.8 - - - - - - -
21/11:30am 22.7 NNW 1 2 1014.9 - 0.8 - - - - - - -
21/11:00am 22.2 CALM 0 2 1014.9 - 0.8 - - - - - - -
21/10:30am 22.2 SW 1 2 1015.1 - 0.8 - - - - - - -
21/10:00am 21.7 CALM 0 1 1015.3 - 0.2 - - - - - - -
21/09:30am 21.8 SW 1 2 1015.4 - 0.0 - - - - - - -
21/09:00am 21.5 CALM 0 0 1015.3 - 2.2 Recent precip. - - - - - -
21/08:30am 21.3 SSW 3 4 1015.2 - 2.2 - - - - - - -
21/08:00am 21.1 SW 5 7 1014.9 - 2.0 - - - - - - -
21/07:30am 21.2 SW 5 7 1014.8 - 2.0 - - - - - - -
21/07:00am 21.2 SW 5 7 1014.8 - 2.0 - - - - - - -
21/06:30am 21.2 SW 6 8 1014.6 - 2.0 - - - - - - -
21/06:00am 21.4 SSW 6 7 1014.3 - 2.0 - - - - - - -
21/05:30am 21.3 SW 7 9 1014.2 - 2.0 - - - - - - -
21/05:00am 21.2 SW 7 9 1014.2 - 2.0 - - - - - - -
21/04:30am 21.2 SW 8 10 1014.0 - 2.0 - - - - - - -
21/04:00am 21.1 SW 7 9 1014.3 - 2.0 - - - - - - -
21/03:30am 20.9 SW 7 8 1014.6 - 2.0 - - - - - - -
21/03:00am 20.8 SW 7 8 1014.8 - 2.0 - - - - - - -
21/02:30am 21.0 SW 7 9 1015.2 - 2.0 - - - - - - -
21/02:00am 21.1 SW 7 8 1015.5 - 2.0 - - - - - - -
21/01:30am 21.2 S 7 8 1015.6 - 2.0 - - - - - - -
21/01:00am 21.1 S 8 9 1015.7 - 2.0 - - - - - - -
21/12:30am 20.8 S 9 11 1015.3 - 1.8 - - - - - - -
21/12:00am 21.2 S 8 10 1016.1 - 1.4 Rain - - - - - -
 
Date/Time
EDT
Temp
°C
Wind Pressure Rain since
9am
mm
Weather Cloud Vis
km
Sea
Height
m
Swell
Dir  Spd
kts
Gust
kts
hPa Trend Height
m
Period
s
Dir
20/11:30pm 21.2 S 8 10 1016.5 - 1.0 - - - - - - -
20/11:00pm 21.2 SSW 9 12 1016.5 - 0.4 - - - - - - -
20/10:30pm 21.6 SW 10 11 1016.6 - 0.2 - - - - - - -
20/10:00pm 21.7 SW 11 13 1016.9 - 0.2 - - - - - - -
20/09:30pm 22.1 SW 10 13 1016.7 - 0.2 - - - - - - -
20/09:00pm 22.8 SW 6 9 1016.5 - 0.2 - - - - - - -
20/08:30pm 23.0 WSW 5 8 1016.0 - 0.2 - - - - - - -
20/08:00pm 23.2 W 3 5 1015.9 - 0.2 - - - - - - -
20/07:30pm 23.3 N 6 8 1015.5 - 0.2 - - - - - - -
20/07:00pm 23.4 NNW 4 7 1015.3 - 0.2 - - - - - - -
20/06:30pm 23.2 N 6 10 1014.9 - 0.2 - - - - - - -
20/06:00pm 23.4 N 9 12 1014.8 - 0.2 - - - - - - -
20/05:30pm 23.4 NNE 11 14 1014.1 - 0.2 - - - - - - -
20/05:00pm 23.3 NNE 13 15 1013.6 - 0.2 - - - - - - -
20/04:30pm 23.4 NNE 12 15 1013.6 - 0.2 - - - - - - -
20/04:00pm 23.6 NNE 12 15 1013.7 - 0.2 - - - - - - -
20/03:30pm 23.9 NNE 12 15 1013.9 - 0.2 - - - - - - -
20/03:00pm 24.2 NNE 12 15 1014.2 - 0.2 - - - - - - -
20/02:30pm 24.1 NNE 10 13 1014.5 - 0.2 - - - - - - -
20/02:00pm 24.1 NNE 11 14 1014.9 - 0.2 - - - - - - -
20/01:30pm 24.2 NNE 11 13 1015.1 - 0.2 - - - - - - -

Other Formats:

Comma delimited format used in spreadsheet applications
http://www.bom.gov.au/fwo/IDN60701/IDN60701.94939.axf

JavaScript Object Notation format (JSON) in row-major order
http://www.bom.gov.au/fwo/IDN60701/IDN60701.94939.json